sensor_id;sensor_type;location;lat;lon;timestamp;pressure;altitude;pressure_sealevel;temperature;humidity
54562;BME280;69047;53.358;-1.486;2024-01-07T00:01:26;101413.81;;;5.67;76.93
54562;BME280;69047;53.358;-1.486;2024-01-07T00:03:52;101416.84;;;5.57;77.12
54562;BME280;69047;53.358;-1.486;2024-01-07T00:06:17;101419.44;;;5.37;77.21
54562;BME280;69047;53.358;-1.486;2024-01-07T00:08:43;101422.44;;;5.62;77.29
54562;BME280;69047;53.358;-1.486;2024-01-07T00:11:08;101425.91;;;5.56;77.56
54562;BME280;69047;53.358;-1.486;2024-01-07T00:13:34;101430.66;;;5.20;78.16
54562;BME280;69047;53.358;-1.486;2024-01-07T00:15:59;101430.44;;;5.15;78.59
54562;BME280;69047;53.358;-1.486;2024-01-07T00:18:25;101433.78;;;5.23;78.74
54562;BME280;69047;53.358;-1.486;2024-01-07T00:20:52;101433.00;;;5.29;78.86
54562;BME280;69047;53.358;-1.486;2024-01-07T00:23:21;101443.91;;;5.21;79.06
54562;BME280;69047;53.358;-1.486;2024-01-07T00:25:47;101444.03;;;5.41;78.62
54562;BME280;69047;53.358;-1.486;2024-01-07T00:28:12;101442.84;;;5.16;78.22
54562;BME280;69047;53.358;-1.486;2024-01-07T00:30:38;101439.16;;;5.23;78.04
54562;BME280;69047;53.358;-1.486;2024-01-07T00:33:03;101444.19;;;5.05;79.22
54562;BME280;69047;53.358;-1.486;2024-01-07T00:35:29;101442.56;;;5.04;79.27
54562;BME280;69047;53.358;-1.486;2024-01-07T00:37:54;101444.31;;;4.90;79.86
54562;BME280;69047;53.358;-1.486;2024-01-07T00:40:22;101452.19;;;4.71;80.35
54562;BME280;69047;53.358;-1.486;2024-01-07T00:42:47;101446.34;;;4.88;80.05
54562;BME280;69047;53.358;-1.486;2024-01-07T00:45:19;101445.69;;;4.80;80.12
54562;BME280;69047;53.358;-1.486;2024-01-07T00:47:47;101453.25;;;4.97;79.37
54562;BME280;69047;53.358;-1.486;2024-01-07T00:50:12;101451.44;;;5.05;79.14
54562;BME280;69047;53.358;-1.486;2024-01-07T00:52:38;101453.75;;;5.08;78.21
54562;BME280;69047;53.358;-1.486;2024-01-07T00:55:04;101459.25;;;5.27;78.03
54562;BME280;69047;53.358;-1.486;2024-01-07T00:57:31;101459.91;;;5.08;78.74
54562;BME280;69047;53.358;-1.486;2024-01-07T00:59:56;101469.34;;;4.97;79.07
54562;BME280;69047;53.358;-1.486;2024-01-07T01:02:22;101471.53;;;5.15;78.67
54562;BME280;69047;53.358;-1.486;2024-01-07T01:04:47;101472.69;;;4.78;79.24
54562;BME280;69047;53.358;-1.486;2024-01-07T01:07:14;101479.44;;;4.95;79.57
54562;BME280;69047;53.358;-1.486;2024-01-07T01:09:44;101476.13;;;4.72;79.76
54562;BME280;69047;53.358;-1.486;2024-01-07T01:12:10;101481.56;;;4.79;79.23
54562;BME280;69047;53.358;-1.486;2024-01-07T01:14:36;101492.88;;;4.74;79.69
54562;BME280;69047;53.358;-1.486;2024-01-07T01:17:01;101482.00;;;4.82;79.37
54562;BME280;69047;53.358;-1.486;2024-01-07T01:19:27;101476.53;;;5.18;78.98
54562;BME280;69047;53.358;-1.486;2024-01-07T01:21:53;101478.25;;;4.77;78.02
54562;BME280;69047;53.358;-1.486;2024-01-07T01:24:18;101487.75;;;4.79;77.37
54562;BME280;69047;53.358;-1.486;2024-01-07T01:26:44;101492.75;;;4.61;78.03
54562;BME280;69047;53.358;-1.486;2024-01-07T01:29:09;101490.31;;;4.87;77.53
54562;BME280;69047;53.358;-1.486;2024-01-07T01:31:35;101489.22;;;4.82;76.89
54562;BME280;69047;53.358;-1.486;2024-01-07T01:34:00;101491.22;;;4.73;76.83
54562;BME280;69047;53.358;-1.486;2024-01-07T01:36:26;101493.44;;;4.91;76.53
54562;BME280;69047;53.358;-1.486;2024-01-07T01:38:51;101491.81;;;4.69;77.45
54562;BME280;69047;53.358;-1.486;2024-01-07T01:41:17;101489.75;;;4.92;77.24
54562;BME280;69047;53.358;-1.486;2024-01-07T01:43:42;101494.25;;;5.13;76.49
54562;BME280;69047;53.358;-1.486;2024-01-07T01:46:08;101502.84;;;4.80;77.11
54562;BME280;69047;53.358;-1.486;2024-01-07T01:48:35;101506.16;;;4.61;78.02
54562;BME280;69047;53.358;-1.486;2024-01-07T01:51:01;101504.25;;;4.76;77.44
54562;BME280;69047;53.358;-1.486;2024-01-07T01:53:27;101503.03;;;4.79;77.30
54562;BME280;69047;53.358;-1.486;2024-01-07T01:55:55;101510.00;;;4.94;77.25
54562;BME280;69047;53.358;-1.486;2024-01-07T01:58:23;101507.75;;;4.77;77.87
54562;BME280;69047;53.358;-1.486;2024-01-07T02:00:48;101508.81;;;5.03;77.31
54562;BME280;69047;53.358;-1.486;2024-01-07T02:03:16;101518.63;;;4.69;77.52
54562;BME280;69047;53.358;-1.486;2024-01-07T02:05:42;101513.81;;;4.43;78.17
54562;BME280;69047;53.358;-1.486;2024-01-07T02:08:07;101521.59;;;4.38;78.36
54562;BME280;69047;53.358;-1.486;2024-01-07T02:10:33;101530.44;;;4.74;78.30
54562;BME280;69047;53.358;-1.486;2024-01-07T02:13:04;101530.69;;;4.79;77.52
54562;BME280;69047;53.358;-1.486;2024-01-07T02:15:31;101529.69;;;4.80;76.83
54562;BME280;69047;53.358;-1.486;2024-01-07T02:17:57;101528.69;;;5.09;76.09
54562;BME280;69047;53.358;-1.486;2024-01-07T02:20:23;101535.75;;;4.89;76.94
54562;BME280;69047;53.358;-1.486;2024-01-07T02:22:48;101537.97;;;5.07;76.26
54562;BME280;69047;53.358;-1.486;2024-01-07T02:25:14;101541.41;;;5.22;76.31
54562;BME280;69047;53.358;-1.486;2024-01-07T02:27:39;101545.41;;;4.83;77.11
54562;BME280;69047;53.358;-1.486;2024-01-07T02:30:05;101544.88;;;4.73;78.44
54562;BME280;69047;53.358;-1.486;2024-01-07T02:32:31;101550.88;;;4.96;77.86
54562;BME280;69047;53.358;-1.486;2024-01-07T02:35:03;101560.66;;;5.32;77.23
54562;BME280;69047;53.358;-1.486;2024-01-07T02:37:29;101553.66;;;5.31;76.90
54562;BME280;69047;53.358;-1.486;2024-01-07T02:39:54;101558.38;;;5.29;77.16
54562;BME280;69047;53.358;-1.486;2024-01-07T02:42:20;101556.81;;;5.13;77.90
54562;BME280;69047;53.358;-1.486;2024-01-07T02:44:45;101554.78;;;4.94;77.65
54562;BME280;69047;53.358;-1.486;2024-01-07T02:47:11;101566.88;;;5.05;77.52
54562;BME280;69047;53.358;-1.486;2024-01-07T02:49:36;101565.44;;;5.09;77.91
54562;BME280;69047;53.358;-1.486;2024-01-07T02:52:02;101569.56;;;5.05;77.24
54562;BME280;69047;53.358;-1.486;2024-01-07T02:54:29;101573.63;;;4.79;77.81
54562;BME280;69047;53.358;-1.486;2024-01-07T02:56:56;101570.47;;;4.76;77.86
54562;BME280;69047;53.358;-1.486;2024-01-07T02:59:21;101574.00;;;4.97;77.68
54562;BME280;69047;53.358;-1.486;2024-01-07T03:01:47;101572.66;;;5.08;76.87
54562;BME280;69047;53.358;-1.486;2024-01-07T03:04:14;101574.25;;;5.24;76.52
54562;BME280;69047;53.358;-1.486;2024-01-07T03:06:40;101565.44;;;5.09;76.17
54562;BME280;69047;53.358;-1.486;2024-01-07T03:09:06;101576.84;;;4.89;76.90
54562;BME280;69047;53.358;-1.486;2024-01-07T03:11:32;101583.38;;;4.87;76.08
54562;BME280;69047;53.358;-1.486;2024-01-07T03:13:57;101588.72;;;4.44;77.61
54562;BME280;69047;53.358;-1.486;2024-01-07T03:16:24;101594.72;;;4.82;77.04
54562;BME280;69047;53.358;-1.486;2024-01-07T03:18:50;101596.28;;;4.41;77.55
54562;BME280;69047;53.358;-1.486;2024-01-07T03:21:19;101594.25;;;4.43;77.21
54562;BME280;69047;53.358;-1.486;2024-01-07T03:23:46;101601.16;;;4.52;76.83
54562;BME280;69047;53.358;-1.486;2024-01-07T03:26:12;101604.81;;;4.44;77.27
54562;BME280;69047;53.358;-1.486;2024-01-07T03:28:38;101613.09;;;4.50;77.39
54562;BME280;69047;53.358;-1.486;2024-01-07T03:31:13;101605.44;;;4.82;77.18
54562;BME280;69047;53.358;-1.486;2024-01-07T03:33:39;101618.50;;;4.35;78.28
54562;BME280;69047;53.358;-1.486;2024-01-07T03:36:10;101612.09;;;4.51;78.16
54562;BME280;69047;53.358;-1.486;2024-01-07T03:38:36;101615.00;;;4.70;77.67
54562;BME280;69047;53.358;-1.486;2024-01-07T03:41:02;101606.09;;;5.06;77.25
54562;BME280;69047;53.358;-1.486;2024-01-07T03:43:28;101615.91;;;4.77;77.17
54562;BME280;69047;53.358;-1.486;2024-01-07T03:45:54;101614.78;;;4.86;76.35
54562;BME280;69047;53.358;-1.486;2024-01-07T03:48:19;101614.19;;;4.55;74.96
54562;BME280;69047;53.358;-1.486;2024-01-07T03:50:46;101620.28;;;4.64;76.14
54562;BME280;69047;53.358;-1.486;2024-01-07T03:53:12;101617.50;;;4.72;74.48
54562;BME280;69047;53.358;-1.486;2024-01-07T03:55:38;101608.19;;;4.53;74.93
54562;BME280;69047;53.358;-1.486;2024-01-07T03:58:04;101623.47;;;4.38;75.30
54562;BME280;69047;53.358;-1.486;2024-01-07T04:00:31;101616.03;;;4.90;75.20
54562;BME280;69047;53.358;-1.486;2024-01-07T04:02:56;101614.06;;;4.99;74.62
54562;BME280;69047;53.358;-1.486;2024-01-07T04:05:21;101624.84;;;4.84;74.68
54562;BME280;69047;53.358;-1.486;2024-01-07T04:07:47;101620.94;;;4.87;75.93
54562;BME280;69047;53.358;-1.486;2024-01-07T04:10:12;101627.41;;;4.71;75.98
54562;BME280;69047;53.358;-1.486;2024-01-07T04:12:38;101615.03;;;4.91;75.03
54562;BME280;69047;53.358;-1.486;2024-01-07T04:15:04;101626.34;;;5.08;74.93
54562;BME280;69047;53.358;-1.486;2024-01-07T04:17:29;101633.59;;;4.57;75.92
54562;BME280;69047;53.358;-1.486;2024-01-07T04:19:55;101630.97;;;4.78;76.04
54562;BME280;69047;53.358;-1.486;2024-01-07T04:22:21;101636.28;;;4.57;77.03
54562;BME280;69047;53.358;-1.486;2024-01-07T04:24:46;101642.38;;;4.80;77.42
54562;BME280;69047;53.358;-1.486;2024-01-07T04:27:12;101644.72;;;4.90;77.55
54562;BME280;69047;53.358;-1.486;2024-01-07T04:29:37;101636.13;;;5.16;77.47
54562;BME280;69047;53.358;-1.486;2024-01-07T04:32:03;101641.81;;;5.27;75.89
54562;BME280;69047;53.358;-1.486;2024-01-07T04:34:33;101649.59;;;4.80;77.53
54562;BME280;69047;53.358;-1.486;2024-01-07T04:36:59;101647.31;;;4.98;77.17
54562;BME280;69047;53.358;-1.486;2024-01-07T04:39:24;101642.78;;;4.98;76.92
54562;BME280;69047;53.358;-1.486;2024-01-07T04:41:49;101651.34;;;5.09;77.56
54562;BME280;69047;53.358;-1.486;2024-01-07T04:44:15;101654.50;;;4.76;78.20
54562;BME280;69047;53.358;-1.486;2024-01-07T04:46:40;101650.84;;;4.98;77.91
54562;BME280;69047;53.358;-1.486;2024-01-07T04:49:06;101653.69;;;4.61;77.64
54562;BME280;69047;53.358;-1.486;2024-01-07T04:51:32;101654.28;;;4.92;77.06
54562;BME280;69047;53.358;-1.486;2024-01-07T04:53:58;101656.81;;;4.65;77.09
54562;BME280;69047;53.358;-1.486;2024-01-07T04:56:23;101666.28;;;4.31;76.93
54562;BME280;69047;53.358;-1.486;2024-01-07T04:58:49;101664.44;;;4.46;76.56
54562;BME280;69047;53.358;-1.486;2024-01-07T05:01:14;101664.41;;;4.61;77.27
54562;BME280;69047;53.358;-1.486;2024-01-07T05:03:40;101662.38;;;4.48;77.23
54562;BME280;69047;53.358;-1.486;2024-01-07T05:06:08;101659.34;;;4.87;77.04
54562;BME280;69047;53.358;-1.486;2024-01-07T05:08:34;101669.78;;;4.61;76.16
54562;BME280;69047;53.358;-1.486;2024-01-07T05:10:59;101661.56;;;4.19;77.09
54562;BME280;69047;53.358;-1.486;2024-01-07T05:13:25;101666.50;;;4.30;77.12
54562;BME280;69047;53.358;-1.486;2024-01-07T05:15:50;101670.25;;;4.50;76.47
54562;BME280;69047;53.358;-1.486;2024-01-07T05:18:22;101670.16;;;4.43;75.75
54562;BME280;69047;53.358;-1.486;2024-01-07T05:20:48;101667.69;;;4.42;75.78
54562;BME280;69047;53.358;-1.486;2024-01-07T05:23:14;101668.69;;;4.91;75.18
54562;BME280;69047;53.358;-1.486;2024-01-07T05:25:39;101674.59;;;4.66;75.11
54562;BME280;69047;53.358;-1.486;2024-01-07T05:28:05;101681.63;;;4.52;76.07
54562;BME280;69047;53.358;-1.486;2024-01-07T05:30:31;101674.78;;;4.35;76.20
54562;BME280;69047;53.358;-1.486;2024-01-07T05:32:56;101686.81;;;4.39;75.88
54562;BME280;69047;53.358;-1.486;2024-01-07T05:35:22;101685.16;;;4.23;76.44
54562;BME280;69047;53.358;-1.486;2024-01-07T05:37:47;101689.41;;;4.18;76.14
54562;BME280;69047;53.358;-1.486;2024-01-07T05:40:13;101695.78;;;4.31;76.39
54562;BME280;69047;53.358;-1.486;2024-01-07T05:42:38;101706.69;;;4.30;75.95
54562;BME280;69047;53.358;-1.486;2024-01-07T05:45:04;101705.03;;;4.29;75.71
54562;BME280;69047;53.358;-1.486;2024-01-07T05:47:29;101697.97;;;4.13;75.57
54562;BME280;69047;53.358;-1.486;2024-01-07T05:49:55;101709.91;;;4.11;76.31
54562;BME280;69047;53.358;-1.486;2024-01-07T05:52:21;101712.47;;;4.04;75.98
54562;BME280;69047;53.358;-1.486;2024-01-07T05:54:46;101707.88;;;4.27;75.31
54562;BME280;69047;53.358;-1.486;2024-01-07T05:57:12;101716.38;;;4.31;74.66
54562;BME280;69047;53.358;-1.486;2024-01-07T05:59:37;101712.81;;;4.53;74.76
54562;BME280;69047;53.358;-1.486;2024-01-07T06:02:03;101718.91;;;4.32;74.48
54562;BME280;69047;53.358;-1.486;2024-01-07T06:04:28;101717.53;;;4.66;74.11
54562;BME280;69047;53.358;-1.486;2024-01-07T06:06:54;101724.38;;;4.39;74.83
54562;BME280;69047;53.358;-1.486;2024-01-07T06:09:19;101726.09;;;4.32;75.44
54562;BME280;69047;53.358;-1.486;2024-01-07T06:11:45;101724.28;;;3.95;75.66
54562;BME280;69047;53.358;-1.486;2024-01-07T06:14:10;101723.91;;;4.35;75.04
54562;BME280;69047;53.358;-1.486;2024-01-07T06:16:36;101715.28;;;4.69;74.15
54562;BME280;69047;53.358;-1.486;2024-01-07T06:19:01;101726.28;;;4.45;74.66
54562;BME280;69047;53.358;-1.486;2024-01-07T06:21:27;101728.63;;;4.63;73.94
54562;BME280;69047;53.358;-1.486;2024-01-07T06:23:52;101729.25;;;4.65;73.73
54562;BME280;69047;53.358;-1.486;2024-01-07T06:26:17;101733.84;;;4.85;74.05
54562;BME280;69047;53.358;-1.486;2024-01-07T06:28:43;101742.94;;;4.70;74.86
54562;BME280;69047;53.358;-1.486;2024-01-07T06:31:08;101741.81;;;4.64;74.66
54562;BME280;69047;53.358;-1.486;2024-01-07T06:33:34;101750.34;;;4.68;74.35
54562;BME280;69047;53.358;-1.486;2024-01-07T06:36:00;101749.38;;;4.17;75.25
54562;BME280;69047;53.358;-1.486;2024-01-07T06:38:26;101755.22;;;4.35;75.93
54562;BME280;69047;53.358;-1.486;2024-01-07T06:40:51;101751.63;;;4.42;75.22
54562;BME280;69047;53.358;-1.486;2024-01-07T06:43:19;101750.41;;;4.30;76.27
54562;BME280;69047;53.358;-1.486;2024-01-07T06:45:44;101754.97;;;4.44;75.69
54562;BME280;69047;53.358;-1.486;2024-01-07T06:48:10;101761.22;;;4.37;75.62
54562;BME280;69047;53.358;-1.486;2024-01-07T06:50:35;101762.41;;;4.20;76.40
54562;BME280;69047;53.358;-1.486;2024-01-07T06:53:01;101765.34;;;4.47;75.46
54562;BME280;69047;53.358;-1.486;2024-01-07T06:55:26;101773.28;;;4.56;74.73
54562;BME280;69047;53.358;-1.486;2024-01-07T06:57:52;101777.06;;;4.46;74.77
54562;BME280;69047;53.358;-1.486;2024-01-07T07:00:17;101775.94;;;4.41;75.72
54562;BME280;69047;53.358;-1.486;2024-01-07T07:02:43;101786.69;;;4.04;76.20
54562;BME280;69047;53.358;-1.486;2024-01-07T07:05:09;101784.81;;;4.27;76.33
54562;BME280;69047;53.358;-1.486;2024-01-07T07:07:34;101789.75;;;4.67;74.55
54562;BME280;69047;53.358;-1.486;2024-01-07T07:10:00;101794.84;;;4.77;74.72
54562;BME280;69047;53.358;-1.486;2024-01-07T07:12:25;101801.69;;;4.65;74.39
54562;BME280;69047;53.358;-1.486;2024-01-07T07:14:50;101805.59;;;4.25;75.45
54562;BME280;69047;53.358;-1.486;2024-01-07T07:17:16;101798.78;;;4.37;75.39
54562;BME280;69047;53.358;-1.486;2024-01-07T07:19:42;101800.44;;;4.38;76.19
54562;BME280;69047;53.358;-1.486;2024-01-07T07:22:07;101804.00;;;4.68;74.94
54562;BME280;69047;53.358;-1.486;2024-01-07T07:24:33;101802.53;;;4.65;74.74
54562;BME280;69047;53.358;-1.486;2024-01-07T07:26:58;101809.41;;;4.45;74.89
54562;BME280;69047;53.358;-1.486;2024-01-07T07:29:23;101806.53;;;4.32;74.73
54562;BME280;69047;53.358;-1.486;2024-01-07T07:31:49;101811.28;;;4.44;74.68
54562;BME280;69047;53.358;-1.486;2024-01-07T07:34:15;101815.44;;;4.47;74.77
54562;BME280;69047;53.358;-1.486;2024-01-07T07:36:48;101810.78;;;4.26;75.35
54562;BME280;69047;53.358;-1.486;2024-01-07T07:39:13;101822.56;;;4.55;74.56
54562;BME280;69047;53.358;-1.486;2024-01-07T07:41:40;101825.06;;;4.19;75.84
54562;BME280;69047;53.358;-1.486;2024-01-07T07:44:05;101833.06;;;4.27;75.84
54562;BME280;69047;53.358;-1.486;2024-01-07T07:46:30;101841.53;;;4.53;75.92
54562;BME280;69047;53.358;-1.486;2024-01-07T07:48:56;101840.22;;;4.49;74.82
54562;BME280;69047;53.358;-1.486;2024-01-07T07:51:21;101845.09;;;4.45;75.19
54562;BME280;69047;53.358;-1.486;2024-01-07T07:53:47;101850.94;;;4.12;76.95
54562;BME280;69047;53.358;-1.486;2024-01-07T07:56:12;101847.19;;;4.21;76.54
54562;BME280;69047;53.358;-1.486;2024-01-07T07:58:37;101848.47;;;4.47;75.98
54562;BME280;69047;53.358;-1.486;2024-01-07T08:01:04;101864.63;;;4.17;76.91
54562;BME280;69047;53.358;-1.486;2024-01-07T08:03:29;101857.31;;;4.48;76.17
54562;BME280;69047;53.358;-1.486;2024-01-07T08:05:56;101862.38;;;4.66;75.09
54562;BME280;69047;53.358;-1.486;2024-01-07T08:08:24;101867.28;;;4.62;75.26
54562;BME280;69047;53.358;-1.486;2024-01-07T08:10:50;101869.25;;;4.45;76.56
54562;BME280;69047;53.358;-1.486;2024-01-07T08:13:15;101878.66;;;4.27;76.43
54562;BME280;69047;53.358;-1.486;2024-01-07T08:15:41;101878.13;;;4.46;76.33
54562;BME280;69047;53.358;-1.486;2024-01-07T08:18:06;101875.59;;;4.30;77.22
54562;BME280;69047;53.358;-1.486;2024-01-07T08:20:32;101882.09;;;4.87;76.03
54562;BME280;69047;53.358;-1.486;2024-01-07T08:22:57;101888.19;;;4.81;74.63
54562;BME280;69047;53.358;-1.486;2024-01-07T08:25:22;101892.78;;;4.58;74.73
54562;BME280;69047;53.358;-1.486;2024-01-07T08:27:48;101896.25;;;3.99;77.42
54562;BME280;69047;53.358;-1.486;2024-01-07T08:30:14;101902.63;;;3.98;75.75
54562;BME280;69047;53.358;-1.486;2024-01-07T08:32:40;101890.97;;;4.36;74.41
54562;BME280;69047;53.358;-1.486;2024-01-07T08:35:18;101894.38;;;4.30;74.38
54562;BME280;69047;53.358;-1.486;2024-01-07T08:37:47;101895.50;;;4.35;73.94
54562;BME280;69047;53.358;-1.486;2024-01-07T08:40:12;101903.16;;;4.61;73.15
54562;BME280;69047;53.358;-1.486;2024-01-07T08:42:38;101909.56;;;4.37;73.96
54562;BME280;69047;53.358;-1.486;2024-01-07T08:45:06;101909.25;;;4.32;73.78
54562;BME280;69047;53.358;-1.486;2024-01-07T08:47:31;101911.28;;;4.53;73.42
54562;BME280;69047;53.358;-1.486;2024-01-07T08:49:57;101912.19;;;4.23;73.80
54562;BME280;69047;53.358;-1.486;2024-01-07T08:52:23;101916.28;;;4.33;73.38
54562;BME280;69047;53.358;-1.486;2024-01-07T08:54:49;101910.38;;;4.75;72.08
54562;BME280;69047;53.358;-1.486;2024-01-07T08:57:14;101912.81;;;4.99;71.56
54562;BME280;69047;53.358;-1.486;2024-01-07T08:59:40;101913.91;;;4.76;70.84
54562;BME280;69047;53.358;-1.486;2024-01-07T09:02:05;101911.81;;;4.86;70.44
54562;BME280;69047;53.358;-1.486;2024-01-07T09:04:30;101920.69;;;4.26;71.70
54562;BME280;69047;53.358;-1.486;2024-01-07T09:06:57;101911.06;;;4.55;71.53
54562;BME280;69047;53.358;-1.486;2024-01-07T09:09:22;101908.47;;;4.46;71.78
54562;BME280;69047;53.358;-1.486;2024-01-07T09:11:48;101907.34;;;4.41;71.93
54562;BME280;69047;53.358;-1.486;2024-01-07T09:14:13;101916.78;;;4.74;71.23
54562;BME280;69047;53.358;-1.486;2024-01-07T09:16:40;101917.69;;;4.81;71.00
54562;BME280;69047;53.358;-1.486;2024-01-07T09:19:05;101921.09;;;4.98;70.14
54562;BME280;69047;53.358;-1.486;2024-01-07T09:21:31;101919.63;;;5.10;70.23
54562;BME280;69047;53.358;-1.486;2024-01-07T09:23:57;101923.41;;;5.16;69.91
54562;BME280;69047;53.358;-1.486;2024-01-07T09:26:22;101927.06;;;4.85;70.42
54562;BME280;69047;53.358;-1.486;2024-01-07T09:28:48;101929.13;;;4.98;69.36
54562;BME280;69047;53.358;-1.486;2024-01-07T09:31:13;101929.78;;;5.00;70.40
54562;BME280;69047;53.358;-1.486;2024-01-07T09:33:39;101934.78;;;5.03;69.32
54562;BME280;69047;53.358;-1.486;2024-01-07T09:36:04;101938.66;;;5.00;70.57
54562;BME280;69047;53.358;-1.486;2024-01-07T09:38:30;101941.13;;;4.87;70.18
54562;BME280;69047;53.358;-1.486;2024-01-07T09:40:56;101949.25;;;4.79;71.02
54562;BME280;69047;53.358;-1.486;2024-01-07T09:43:21;101948.81;;;4.53;71.42
54562;BME280;69047;53.358;-1.486;2024-01-07T09:45:47;101955.59;;;4.64;70.82
54562;BME280;69047;53.358;-1.486;2024-01-07T09:48:15;101956.31;;;4.80;71.05
54562;BME280;69047;53.358;-1.486;2024-01-07T09:50:41;101965.59;;;4.70;71.09
54562;BME280;69047;53.358;-1.486;2024-01-07T09:53:09;101975.13;;;4.72;70.40
54562;BME280;69047;53.358;-1.486;2024-01-07T09:55:52;101962.13;;;4.84;70.78
54562;BME280;69047;53.358;-1.486;2024-01-07T09:58:18;101963.78;;;4.47;71.60
54562;BME280;69047;53.358;-1.486;2024-01-07T10:00:43;101974.19;;;4.42;71.13
54562;BME280;69047;53.358;-1.486;2024-01-07T10:03:09;101974.91;;;4.82;70.86
54562;BME280;69047;53.358;-1.486;2024-01-07T10:05:35;101974.16;;;5.11;69.82
54562;BME280;69047;53.358;-1.486;2024-01-07T10:08:02;101977.25;;;4.99;69.98
54562;BME280;69047;53.358;-1.486;2024-01-07T10:10:28;101978.44;;;4.97;70.17
54562;BME280;69047;53.358;-1.486;2024-01-07T10:12:54;101974.94;;;5.11;69.99
54562;BME280;69047;53.358;-1.486;2024-01-07T10:15:23;101984.44;;;4.84;70.21
54562;BME280;69047;53.358;-1.486;2024-01-07T10:17:54;101987.06;;;4.92;70.22
54562;BME280;69047;53.358;-1.486;2024-01-07T10:20:20;101995.69;;;5.17;70.22
54562;BME280;69047;53.358;-1.486;2024-01-07T10:22:49;101992.47;;;4.84;70.72
54562;BME280;69047;53.358;-1.486;2024-01-07T10:25:15;102000.44;;;4.32;72.19
54562;BME280;69047;53.358;-1.486;2024-01-07T10:27:41;102001.81;;;4.74;71.65
54562;BME280;69047;53.358;-1.486;2024-01-07T10:30:06;101995.03;;;5.00;70.72
54562;BME280;69047;53.358;-1.486;2024-01-07T10:32:32;102004.25;;;4.83;70.81
54562;BME280;69047;53.358;-1.486;2024-01-07T10:35:04;102003.75;;;4.80;71.33
54562;BME280;69047;53.358;-1.486;2024-01-07T10:37:30;102005.91;;;4.84;72.06
54562;BME280;69047;53.358;-1.486;2024-01-07T10:39:59;102008.28;;;4.79;71.96
54562;BME280;69047;53.358;-1.486;2024-01-07T10:42:32;102011.25;;;4.84;71.05
54562;BME280;69047;53.358;-1.486;2024-01-07T10:44:59;102011.25;;;5.07;69.97
54562;BME280;69047;53.358;-1.486;2024-01-07T10:47:29;102010.81;;;4.58;71.38
54562;BME280;69047;53.358;-1.486;2024-01-07T10:49:57;102011.03;;;4.94;69.58
54562;BME280;69047;53.358;-1.486;2024-01-07T10:52:23;102010.66;;;4.97;69.91
54562;BME280;69047;53.358;-1.486;2024-01-07T10:54:49;102022.66;;;4.64;71.25
54562;BME280;69047;53.358;-1.486;2024-01-07T10:57:43;102020.31;;;5.06;70.29
54562;BME280;69047;53.358;-1.486;2024-01-07T11:00:14;102019.75;;;4.51;70.32
54562;BME280;69047;53.358;-1.486;2024-01-07T11:05:58;102023.06;;;4.75;69.83
54562;BME280;69047;53.358;-1.486;2024-01-07T11:08:34;102016.28;;;4.65;71.33
54562;BME280;69047;53.358;-1.486;2024-01-07T11:11:15;102020.75;;;4.72;70.88
54562;BME280;69047;53.358;-1.486;2024-01-07T11:13:43;102021.06;;;4.77;71.62
54562;BME280;69047;53.358;-1.486;2024-01-07T11:16:09;102012.44;;;5.05;70.93
54562;BME280;69047;53.358;-1.486;2024-01-07T11:18:50;102017.50;;;5.22;70.22
54562;BME280;69047;53.358;-1.486;2024-01-07T11:21:25;102017.84;;;5.19;70.39
54562;BME280;69047;53.358;-1.486;2024-01-07T11:23:51;102015.56;;;5.75;69.79
54562;BME280;69047;53.358;-1.486;2024-01-07T11:26:18;102024.38;;;5.54;69.79
54562;BME280;69047;53.358;-1.486;2024-01-07T11:28:51;102019.88;;;5.32;69.46
54562;BME280;69047;53.358;-1.486;2024-01-07T11:31:19;102034.22;;;4.64;71.27
54562;BME280;69047;53.358;-1.486;2024-01-07T11:33:47;102021.13;;;4.92;71.12
54562;BME280;69047;53.358;-1.486;2024-01-07T11:36:14;102025.56;;;4.99;71.71
54562;BME280;69047;53.358;-1.486;2024-01-07T11:38:49;102028.16;;;4.47;71.71
54562;BME280;69047;53.358;-1.486;2024-01-07T11:41:15;102035.91;;;5.25;71.66
54562;BME280;69047;53.358;-1.486;2024-01-07T11:43:54;102038.94;;;4.85;70.96
54562;BME280;69047;53.358;-1.486;2024-01-07T11:46:21;102031.00;;;5.29;70.38
54562;BME280;69047;53.358;-1.486;2024-01-07T11:48:48;102033.13;;;4.96;70.77
54562;BME280;69047;53.358;-1.486;2024-01-07T11:51:13;102026.00;;;4.88;70.42
54562;BME280;69047;53.358;-1.486;2024-01-07T11:53:39;102038.00;;;4.78;70.28
54562;BME280;69047;53.358;-1.486;2024-01-07T11:56:05;102029.88;;;4.86;70.71
54562;BME280;69047;53.358;-1.486;2024-01-07T11:58:30;102033.63;;;4.99;70.37
54562;BME280;69047;53.358;-1.486;2024-01-07T12:00:56;102025.31;;;5.09;70.34
54562;BME280;69047;53.358;-1.486;2024-01-07T12:03:23;102030.00;;;5.30;69.11
54562;BME280;69047;53.358;-1.486;2024-01-07T12:05:49;102030.44;;;4.96;68.90
54562;BME280;69047;53.358;-1.486;2024-01-07T12:08:14;102032.41;;;5.02;69.65
54562;BME280;69047;53.358;-1.486;2024-01-07T12:10:41;102030.84;;;4.70;69.20
54562;BME280;69047;53.358;-1.486;2024-01-07T12:13:07;102033.66;;;5.14;69.18
54562;BME280;69047;53.358;-1.486;2024-01-07T12:15:35;102031.66;;;4.93;69.56
54562;BME280;69047;53.358;-1.486;2024-01-07T12:18:01;102038.66;;;4.80;68.85
54562;BME280;69047;53.358;-1.486;2024-01-07T12:20:27;102034.47;;;4.77;69.50
54562;BME280;69047;53.358;-1.486;2024-01-07T12:22:56;102037.13;;;4.55;69.22
54562;BME280;69047;53.358;-1.486;2024-01-07T12:25:23;102032.91;;;4.60;69.67
54562;BME280;69047;53.358;-1.486;2024-01-07T12:27:51;102038.75;;;4.64;68.97
54562;BME280;69047;53.358;-1.486;2024-01-07T12:30:20;102025.03;;;5.04;68.23
54562;BME280;69047;53.358;-1.486;2024-01-07T12:32:46;102022.34;;;5.04;66.43
54562;BME280;69047;53.358;-1.486;2024-01-07T12:35:11;102032.50;;;4.94;67.81
54562;BME280;69047;53.358;-1.486;2024-01-07T12:37:37;102030.22;;;5.06;66.98
54562;BME280;69047;53.358;-1.486;2024-01-07T12:40:03;102026.81;;;5.26;66.63
54562;BME280;69047;53.358;-1.486;2024-01-07T12:42:29;102032.66;;;5.30;66.42
54562;BME280;69047;53.358;-1.486;2024-01-07T12:44:55;102027.69;;;4.89;66.26
54562;BME280;69047;53.358;-1.486;2024-01-07T12:47:20;102032.38;;;4.87;66.61
54562;BME280;69047;53.358;-1.486;2024-01-07T12:49:46;102025.41;;;5.01;65.65